Time;durP1;ratioP1;P1;durP2;ratioP2;P2;SDS_P1;SDS_P2;PMS_P1;PMS_P2;Temp;Humidity;BMP_temperature;BMP_pressure;BME280_temperature;BME280_humidity;BME280_pressure;Samples;Min_cycle;Max_cycle;Signal;HPM_P1;HPM_P2
2023/06/13 00:02:07;;;;;;;1.08;1.08;;;;;;;14.41;100.00;90500.25;5093073;28;20027;-68
2023/06/13 00:04:32;;;;;;;1.95;1.85;;;;;;;14.50;100.00;90497.44;5092991;28;20478;-69
2023/06/13 00:06:58;;;;;;;1.00;1.00;;;;;;;14.57;100.00;90501.09;5093103;28;20103;-68
2023/06/13 00:09:25;;;;;;;1.10;1.05;;;;;;;14.59;100.00;90492.72;5092840;28;20035;-68
2023/06/13 00:11:51;;;;;;;2.67;1.17;;;;;;;14.62;100.00;90492.03;5092781;28;20030;-68
2023/06/13 00:14:20;;;;;;;1.02;1.02;;;;;;;14.66;100.00;90503.59;5092888;28;20043;-68
2023/06/13 00:16:47;;;;;;;1.55;1.45;;;;;;;14.76;100.00;90495.06;5092846;28;20421;-68
2023/06/13 00:19:13;;;;;;;1.95;1.75;;;;;;;14.72;100.00;90490.75;5092677;28;20028;-68
2023/06/13 00:21:40;;;;;;;1.10;1.10;;;;;;;14.71;100.00;90479.25;5093017;28;20093;-68
2023/06/13 00:24:06;;;;;;;1.08;1.08;;;;;;;14.77;100.00;90480.56;5092954;28;20064;-68
2023/06/13 00:26:31;;;;;;;1.27;1.27;;;;;;;14.79;100.00;90478.31;5092800;28;20063;-68
2023/06/13 00:28:56;;;;;;;1.70;1.60;;;;;;;14.80;100.00;90479.09;5092443;28;20043;-68
2023/06/13 00:31:24;;;;;;;1.23;1.13;;;;;;;14.60;100.00;90475.53;5092446;28;20262;-68
2023/06/13 00:33:50;;;;;;;2.67;1.45;;;;;;;14.55;100.00;90478.47;5074587;28;20028;-68
2023/06/13 00:36:19;;;;;;;0.80;0.80;;;;;;;14.51;100.00;90470.31;5092374;28;20027;-68
2023/06/13 00:38:47;;;;;;;0.88;0.88;;;;;;;14.45;100.00;90478.94;5092608;28;20047;-68
2023/06/13 00:41:13;;;;;;;1.33;1.27;;;;;;;14.41;100.00;90483.41;5092305;28;20027;-68
2023/06/13 00:43:39;;;;;;;1.55;1.50;;;;;;;14.44;100.00;90483.53;5092635;28;20051;-67
2023/06/13 00:46:04;;;;;;;1.85;1.75;;;;;;;14.48;100.00;90484.38;5092142;28;20032;-68
2023/06/13 00:48:33;;;;;;;2.00;1.48;;;;;;;14.49;100.00;90467.22;5092336;28;20028;-68
2023/06/13 00:51:01;;;;;;;1.90;1.60;;;;;;;14.47;100.00;90474.81;5092157;28;20016;-67
2023/06/13 00:53:29;;;;;;;1.45;1.33;;;;;;;14.58;100.00;90467.06;5091976;28;20024;-68
2023/06/13 00:55:55;;;;;;;1.10;1.10;;;;;;;14.66;100.00;90466.88;5092060;28;20028;-68
2023/06/13 00:58:20;;;;;;;2.47;1.70;;;;;;;14.79;100.00;90472.94;5092285;28;20038;-68
2023/06/13 01:00:46;;;;;;;1.30;1.15;;;;;;;14.78;100.00;90465.25;5073167;28;20027;-67
2023/06/13 01:03:15;;;;;;;0.85;0.85;;;;;;;14.69;100.00;90465.44;5091985;28;20036;-68
2023/06/13 01:05:44;;;;;;;1.02;1.02;;;;;;;14.57;100.00;90466.28;5091794;28;20031;-67
2023/06/13 01:08:13;;;;;;;0.90;0.90;;;;;;;14.38;100.00;90469.59;5091807;28;20490;-68
2023/06/13 01:10:42;;;;;;;1.00;0.98;;;;;;;14.24;100.00;90465.75;5097005;28;20397;-68
2023/06/13 01:13:20;;;;;;;1.65;1.55;;;;;;;14.19;100.00;90477.47;5112011;28;20032;-68
2023/06/13 01:15:53;;;;;;;1.63;1.52;;;;;;;14.15;100.00;90465.13;5091666;28;20058;-67
2023/06/13 01:18:24;;;;;;;2.25;1.92;;;;;;;14.15;100.00;90470.47;5091597;28;20034;-67
2023/06/13 01:20:56;;;;;;;0.75;0.75;;;;;;;14.26;100.00;90474.22;5091577;28;20039;-67
2023/06/13 01:23:44;;;;;;;1.88;1.77;;;;;;;14.40;100.00;90466.56;5091521;28;20028;-68
2023/06/13 01:26:29;;;;;;;1.27;1.27;;;;;;;14.35;100.00;90458.78;5091599;28;20498;-67
2023/06/13 01:28:56;;;;;;;1.10;1.10;;;;;;;14.38;100.00;90466.16;5091408;28;20040;-67
2023/06/13 01:31:23;;;;;;;0.90;0.90;;;;;;;14.50;100.00;90468.75;5091422;28;20089;-67
2023/06/13 01:33:51;;;;;;;1.23;1.23;;;;;;;14.31;100.00;90479.31;5091465;28;20115;-67
2023/06/13 01:36:16;;;;;;;3.17;1.45;;;;;;;14.19;100.00;90471.34;5091345;28;20118;-67
2023/06/13 01:38:42;;;;;;;1.20;1.20;;;;;;;14.19;100.00;90474.00;5091191;28;20505;-67
2023/06/13 01:41:08;;;;;;;0.90;0.90;;;;;;;14.21;100.00;90477.16;5091193;28;20028;-66
2023/06/13 01:43:33;;;;;;;1.83;1.73;;;;;;;14.29;100.00;90471.63;5091238;28;20135;-66
2023/06/13 01:46:28;;;;;;;1.33;1.20;;;;;;;14.14;100.00;90468.91;5091518;28;20524;-66
2023/06/13 01:49:05;;;;;;;1.30;1.20;;;;;;;14.07;100.00;90477.53;5091330;28;20026;-66
2023/06/13 01:51:36;;;;;;;1.10;0.93;;;;;;;14.00;100.00;90472.75;5091070;28;20032;-66
2023/06/13 01:54:06;;;;;;;4.07;1.83;;;;;;;14.07;100.00;90481.00;5090993;28;20470;-66
2023/06/13 01:56:33;;;;;;;3.00;2.30;;;;;;;14.08;100.00;90479.09;5091096;28;20028;-67
2023/06/13 01:59:07;;;;;;;2.55;1.42;;;;;;;13.87;100.00;90481.94;5091059;28;20049;-67
2023/06/13 02:01:36;;;;;;;0.82;0.82;;;;;;;13.83;100.00;90481.06;5091098;28;20118;-67
2023/06/13 02:04:02;;;;;;;0.85;0.85;;;;;;;13.82;100.00;90484.06;5091079;28;20490;-67
2023/06/13 02:06:29;;;;;;;3.17;0.95;;;;;;;13.85;100.00;90478.81;5090803;28;20067;-67
2023/06/13 02:08:55;;;;;;;1.27;1.17;;;;;;;13.75;100.00;90481.97;5091088;28;20056;-67
2023/06/13 02:11:21;;;;;;;1.58;1.17;;;;;;;13.63;100.00;90477.44;5090846;28;20043;-66
2023/06/13 02:13:48;;;;;;;1.17;1.17;;;;;;;13.62;100.00;90475.09;5095001;28;20102;-67
2023/06/13 02:16:14;;;;;;;1.75;1.65;;;;;;;13.57;100.00;90470.78;5095319;28;20107;-67
2023/06/13 02:18:40;;;;;;;1.85;1.58;;;;;;;13.60;100.00;90480.78;5095193;28;20035;-66
2023/06/13 02:21:05;;;;;;;1.13;1.13;;;;;;;13.66;100.00;90478.66;5094976;28;20024;-67
2023/06/13 02:23:31;;;;;;;1.10;1.10;;;;;;;13.56;100.00;90471.09;5094993;28;20024;-66
2023/06/13 02:25:57;;;;;;;0.93;0.93;;;;;;;13.47;100.00;90481.91;5095226;28;20028;-66
2023/06/13 02:28:23;;;;;;;0.90;0.90;;;;;;;13.40;100.00;90485.13;5095001;28;20077;-66
2023/06/13 02:30:48;;;;;;;1.70;1.00;;;;;;;13.31;100.00;90476.47;5094623;28;20035;-66
2023/06/13 02:33:15;;;;;;;1.35;1.30;;;;;;;13.09;100.00;90479.56;5094888;28;20028;-66
2023/06/13 02:35:41;;;;;;;1.13;1.13;;;;;;;12.97;100.00;90476.91;5094836;28;20032;-66
2023/06/13 02:38:07;;;;;;;1.20;1.20;;;;;;;12.94;100.00;90490.91;5094234;28;20125;-66
2023/06/13 02:40:33;;;;;;;0.90;0.90;;;;;;;12.81;100.00;90482.91;5094506;28;20051;-66
2023/06/13 02:43:00;;;;;;;1.13;1.13;;;;;;;12.69;100.00;90482.09;5076446;28;20124;-66
2023/06/13 02:45:25;;;;;;;1.30;1.20;;;;;;;12.57;100.00;90488.97;5094564;28;20154;-66
2023/06/13 02:47:50;;;;;;;0.93;0.93;;;;;;;12.49;100.00;90489.09;5094618;28;20107;-66
2023/06/13 02:50:16;;;;;;;0.93;0.93;;;;;;;12.37;100.00;90491.72;5094378;28;20077;-66
2023/06/13 02:52:42;;;;;;;1.23;1.23;;;;;;;12.34;100.00;90490.50;5094554;28;20032;-66
2023/06/13 02:55:08;;;;;;;1.48;1.40;;;;;;;12.27;100.00;90488.34;5094330;28;20460;-66
2023/06/13 02:57:34;;;;;;;1.55;1.45;;;;;;;12.27;100.00;90499.00;5094542;28;20035;-66
2023/06/13 03:00:00;;;;;;;1.50;1.40;;;;;;;12.20;100.00;90498.78;5094315;28;20047;-65
2023/06/13 03:02:26;;;;;;;0.90;0.90;;;;;;;12.17;100.00;90498.66;5094239;28;20081;-65
2023/06/13 03:04:52;;;;;;;0.80;0.80;;;;;;;12.16;100.00;90505.88;5094277;28;20050;-65
2023/06/13 03:07:18;;;;;;;1.13;1.02;;;;;;;12.14;100.00;90500.06;5094185;28;20027;-65
2023/06/13 03:09:43;;;;;;;1.58;1.48;;;;;;;12.11;100.00;90503.41;5093982;28;20032;-65
2023/06/13 03:12:11;;;;;;;1.25;1.23;;;;;;;12.06;100.00;90492.94;5093917;28;20031;-66
2023/06/13 03:14:36;;;;;;;1.08;1.08;;;;;;;12.03;100.00;90496.28;5093979;28;20032;-65
2023/06/13 03:17:03;;;;;;;1.73;1.63;;;;;;;11.96;100.00;90498.66;5094267;28;20042;-66
2023/06/13 03:19:29;;;;;;;0.73;0.73;;;;;;;11.92;100.00;90495.88;5093794;28;20028;-66
2023/06/13 03:21:56;;;;;;;1.10;1.10;;;;;;;11.97;100.00;90502.88;5093875;28;20091;-67
2023/06/13 03:24:21;;;;;;;0.95;0.95;;;;;;;11.97;100.00;90506.34;5093520;28;20206;-67
2023/06/13 03:26:47;;;;;;;1.13;1.13;;;;;;;11.91;100.00;90505.00;5094071;28;20103;-67
2023/06/13 03:29:12;;;;;;;1.05;1.05;;;;;;;11.97;100.00;90505.56;5093776;28;20081;-66
2023/06/13 03:31:38;;;;;;;1.75;0.95;;;;;;;12.02;100.00;90505.38;5093718;28;20020;-67
2023/06/13 03:34:03;;;;;;;0.73;0.73;;;;;;;12.03;100.00;90498.94;5093672;28;20517;-67
2023/06/13 03:36:28;;;;;;;1.20;1.20;;;;;;;12.19;100.00;90505.22;5093637;28;20119;-66
2023/06/13 03:38:54;;;;;;;1.30;1.30;;;;;;;12.18;100.00;90503.66;5093409;28;20039;-67
2023/06/13 03:41:19;;;;;;;1.55;1.08;;;;;;;12.18;100.00;90503.66;5093514;28;20066;-67
2023/06/13 03:43:45;;;;;;;1.02;1.02;;;;;;;12.17;100.00;90499.44;5093408;28;20028;-67
2023/06/13 03:46:10;;;;;;;1.65;1.50;;;;;;;12.30;100.00;90502.91;5093363;28;20032;-67
2023/06/13 03:48:36;;;;;;;1.23;1.17;;;;;;;12.41;100.00;90506.72;5093244;28;20020;-67
2023/06/13 03:51:01;;;;;;;0.85;0.85;;;;;;;12.49;100.00;90505.09;5097322;28;20077;-67
2023/06/13 03:53:27;;;;;;;3.05;1.20;;;;;;;12.56;100.00;90505.31;5093095;28;20039;-67
2023/06/13 03:55:52;;;;;;;0.85;0.85;;;;;;;12.56;100.00;90505.31;5093292;28;20032;-67
2023/06/13 03:58:18;;;;;;;1.08;1.08;;;;;;;12.51;100.00;90502.88;5093140;28;20035;-66
2023/06/13 04:00:44;;;;;;;3.10;1.50;;;;;;;12.62;100.00;90514.66;5093387;28;20557;-66
2023/06/13 04:03:10;;;;;;;1.30;1.30;;;;;;;12.72;100.00;90508.91;5093166;28;20514;-66
2023/06/13 04:05:35;;;;;;;0.98;0.98;;;;;;;12.77;100.00;90513.25;5093030;28;20032;-66
2023/06/13 04:08:02;;;;;;;1.58;1.48;;;;;;;12.93;100.00;90519.50;5092934;28;20036;-66
2023/06/13 04:10:28;;;;;;;1.73;1.63;;;;;;;12.98;100.00;90513.97;5092905;28;20020;-66
2023/06/13 04:12:53;;;;;;;1.42;1.33;;;;;;;13.04;100.00;90519.84;5092813;28;20039;-66
2023/06/13 04:15:20;;;;;;;1.02;1.02;;;;;;;13.04;100.00;90525.19;5092814;28;20102;-66
2023/06/13 04:17:46;;;;;;;1.00;1.00;;;;;;;13.19;100.00;90525.34;5092899;28;20047;-66
2023/06/13 04:20:14;;;;;;;0.90;0.90;;;;;;;13.21;100.00;90521.56;5092624;28;20024;-66
2023/06/13 04:22:41;;;;;;;1.98;1.88;;;;;;;13.20;100.00;90512.75;5092791;28;20036;-66
2023/06/13 04:25:07;;;;;;;16.95;2.75;;;;;;;13.31;100.00;90529.91;5092746;28;20020;-66
2023/06/13 04:27:34;;;;;;;2.65;1.90;;;;;;;13.37;100.00;90517.88;5092650;28;20031;-66
2023/06/13 04:30:00;;;;;;;1.20;1.20;;;;;;;13.65;100.00;90530.56;5092626;28;20028;-68
2023/06/13 04:32:28;;;;;;;1.25;1.17;;;;;;;13.75;100.00;90522.09;5092552;28;20024;-67
2023/06/13 04:34:55;;;;;;;1.10;1.10;;;;;;;14.00;100.00;90528.13;5091654;28;20058;-66
2023/06/13 04:37:25;;;;;;;1.63;1.52;;;;;;;14.19;100.00;90525.63;5092509;28;20027;-66
2023/06/13 04:39:53;;;;;;;1.17;1.13;;;;;;;14.31;100.00;90528.25;5092421;28;20035;-66
2023/06/13 04:42:28;;;;;;;0.75;0.75;;;;;;;14.40;100.00;90528.13;5092369;28;20478;-66
2023/06/13 04:44:56;;;;;;;0.70;0.70;;;;;;;14.51;100.00;90536.47;5092294;28;20103;-67
2023/06/13 04:47:23;;;;;;;1.05;1.05;;;;;;;14.64;100.00;90533.38;5092255;28;20038;-67
2023/06/13 04:49:51;;;;;;;0.73;0.73;;;;;;;14.90;100.00;90532.16;5092367;28;20028;-67
2023/06/13 04:52:18;;;;;;;2.08;1.42;;;;;;;15.32;100.00;90539.69;5092066;28;20110;-66
2023/06/13 04:54:45;;;;;;;1.15;1.15;;;;;;;15.45;100.00;90541.13;5092044;28;20058;-65
2023/06/13 04:57:12;;;;;;;1.67;1.58;;;;;;;15.52;100.00;90546.69;5092344;28;20020;-67
2023/06/13 04:59:39;;;;;;;1.95;1.85;;;;;;;15.88;100.00;90543.69;5105662;28;20518;-67
2023/06/13 05:02:04;;;;;;;1.13;1.13;;;;;;;16.24;100.00;90539.09;5112273;28;20126;-67
2023/06/13 05:04:30;;;;;;;2.50;1.48;;;;;;;16.61;100.00;90550.22;5112280;28;20168;-66
2023/06/13 05:06:57;;;;;;;1.75;1.65;;;;;;;17.10;100.00;90556.91;5112331;28;20418;-66
2023/06/13 05:09:23;;;;;;;1.20;1.20;;;;;;;17.36;100.00;90557.00;5112023;28;20459;-67
2023/06/13 05:11:48;;;;;;;1.27;1.27;;;;;;;17.20;100.00;90565.16;5112073;28;20114;-68
2023/06/13 05:14:14;;;;;;;1.42;1.33;;;;;;;17.31;100.00;90562.66;5112086;28;20036;-65
2023/06/13 05:16:40;;;;;;;1.73;1.63;;;;;;;17.08;100.00;90556.50;5112041;28;20026;-63
2023/06/13 05:19:06;;;;;;;1.65;1.45;;;;;;;16.73;100.00;90560.84;5112182;28;20031;-74
2023/06/13 05:21:32;;;;;;;5.13;2.75;;;;;;;15.96;100.00;90550.03;5111802;28;20485;-73
2023/06/13 05:23:59;;;;;;;1.45;1.35;;;;;;;15.82;100.00;90553.16;5111811;28;20055;-64
2023/06/13 05:26:25;;;;;;;1.00;1.00;;;;;;;15.66;100.00;90557.78;5111769;28;20035;-66
2023/06/13 05:28:51;;;;;;;2.25;2.05;;;;;;;15.97;100.00;90551.56;5111970;28;20039;-65
2023/06/13 05:31:16;;;;;;;1.40;1.30;;;;;;;16.03;100.00;90557.44;5111710;28;20457;-66
2023/06/13 05:33:42;;;;;;;0.95;0.95;;;;;;;15.98;100.00;90555.03;5111672;28;20072;-70
2023/06/13 05:36:07;;;;;;;2.40;2.30;;;;;;;16.52;100.00;90564.97;5093441;28;20023;-69
2023/06/13 05:38:33;;;;;;;1.30;1.30;;;;;;;16.76;100.00;90562.06;5111834;28;20235;-69
2023/06/13 05:40:58;;;;;;;1.02;1.02;;;;;;;17.07;100.00;90563.78;5111474;28;20474;-69
2023/06/13 05:43:24;;;;;;;0.90;0.90;;;;;;;17.71;100.00;90556.06;5111405;28;20046;-71
2023/06/13 05:45:49;;;;;;;1.52;1.52;;;;;;;18.21;100.00;90558.34;5111305;28;20030;-73
2023/06/13 05:48:15;;;;;;;1.05;1.05;;;;;;;18.52;100.00;90549.13;5111259;28;20032;-69
2023/06/13 05:50:40;;;;;;;1.45;1.45;;;;;;;17.56;100.00;90563.84;5111433;28;20024;-69
2023/06/13 05:53:06;;;;;;;1.08;1.05;;;;;;;17.49;100.00;90562.94;5111705;28;20084;-72
2023/06/13 05:55:32;;;;;;;2.20;2.00;;;;;;;17.82;100.00;90568.50;5111184;28;20445;-70
2023/06/13 05:57:57;;;;;;;0.80;0.80;;;;;;;17.83;100.00;90561.22;5103052;28;20036;-69
2023/06/13 06:00:23;;;;;;;0.80;0.80;;;;;;;17.84;100.00;90560.88;5090702;28;20024;-69
2023/06/13 06:02:52;;;;;;;1.10;1.00;;;;;;;17.13;100.00;90564.25;5093491;28;20513;-68
2023/06/13 06:05:19;;;;;;;1.75;1.65;;;;;;;16.76;100.00;90556.69;5085710;28;20107;-68
2023/06/13 06:07:45;;;;;;;2.75;1.42;;;;;;;16.73;100.00;90554.69;5111317;28;20055;-68
2023/06/13 06:10:11;;;;;;;1.50;1.50;;;;;;;16.73;100.00;90555.47;5110475;28;20040;-69
2023/06/13 06:12:37;;;;;;;1.48;1.38;;;;;;;16.73;100.00;90566.22;5110647;28;20104;-69
2023/06/13 06:15:03;;;;;;;1.02;1.02;;;;;;;17.16;100.00;90558.16;5111235;28;20067;-70
2023/06/13 06:17:29;;;;;;;0.88;0.88;;;;;;;17.31;100.00;90558.06;5111099;28;20042;-70
2023/06/13 06:19:55;;;;;;;1.05;1.00;;;;;;;17.79;100.00;90561.16;5110783;28;20036;-69
2023/06/13 06:22:20;;;;;;;0.88;0.88;;;;;;;17.94;100.00;90562.94;5111059;28;20055;-69
2023/06/13 06:24:46;;;;;;;0.98;0.98;;;;;;;17.31;100.00;90568.81;5111039;28;20069;-69
2023/06/13 06:27:12;;;;;;;1.17;1.08;;;;;;;16.97;100.00;90575.09;5111176;28;20027;-69
2023/06/13 06:29:38;;;;;;;1.13;1.13;;;;;;;17.04;100.00;90570.66;5110987;28;20507;-69
2023/06/13 06:32:04;;;;;;;1.02;1.02;;;;;;;16.95;100.00;90572.78;5110975;28;20035;-69
2023/06/13 06:34:30;;;;;;;1.00;1.00;;;;;;;17.02;100.00;90564.81;5110998;28;20039;-69
2023/06/13 06:36:55;;;;;;;1.63;1.55;;;;;;;16.85;100.00;90567.19;5110964;28;20032;-69
2023/06/13 06:39:22;;;;;;;1.30;1.30;;;;;;;17.70;100.00;90557.19;5110842;28;20492;-68
2023/06/13 06:41:48;;;;;;;0.90;0.90;;;;;;;18.54;100.00;90562.22;5110895;28;20043;-69
2023/06/13 06:44:13;;;;;;;1.38;1.27;;;;;;;18.87;100.00;90563.44;5110860;28;20040;-69
2023/06/13 06:46:39;;;;;;;0.90;0.90;;;;;;;19.44;100.00;90565.59;5110912;28;20143;-69
2023/06/13 06:49:04;;;;;;;0.65;0.65;;;;;;;20.79;100.00;90565.03;5110780;28;20044;-69
2023/06/13 06:51:29;;;;;;;1.23;1.13;;;;;;;21.32;100.00;90564.50;5110759;28;20047;-69
2023/06/13 06:53:56;;;;;;;1.48;1.38;;;;;;;21.10;100.00;90567.09;5110684;28;20071;-69
2023/06/13 06:56:22;;;;;;;1.10;1.10;;;;;;;20.85;100.00;90558.13;5110792;28;20405;-69
2023/06/13 06:58:47;;;;;;;0.80;0.80;;;;;;;19.95;100.00;90566.81;5113123;28;20043;-69
2023/06/13 07:01:15;;;;;;;1.30;1.20;;;;;;;19.57;100.00;90568.03;5114681;28;20039;-69
2023/06/13 07:03:41;;;;;;;1.15;1.05;;;;;;;19.13;100.00;90576.81;5114659;28;20032;-69
2023/06/13 07:06:07;;;;;;;1.23;1.15;;;;;;;18.78;100.00;90575.28;5114729;28;20470;-69
2023/06/13 07:08:32;;;;;;;1.08;1.08;;;;;;;18.91;100.00;90577.72;5114404;28;20481;-69
2023/06/13 07:10:58;;;;;;;1.15;1.05;;;;;;;18.58;100.00;90573.81;5114320;28;20122;-69
2023/06/13 07:13:25;;;;;;;0.88;0.88;;;;;;;18.88;100.00;90578.44;5114422;28;20497;-69
2023/06/13 07:15:51;;;;;;;1.10;1.10;;;;;;;18.72;100.00;90574.03;5114453;28;20036;-70
2023/06/13 07:18:16;;;;;;;1.58;1.48;;;;;;;18.76;100.00;90580.22;5114114;28;20039;-69
2023/06/13 07:20:41;;;;;;;1.13;1.02;;;;;;;17.88;100.00;90575.16;5114305;28;20169;-68
2023/06/13 07:23:07;;;;;;;1.27;1.20;;;;;;;17.94;100.00;90572.94;5095781;28;20163;-68
2023/06/13 07:25:32;;;;;;;1.48;1.25;;;;;;;17.90;100.00;90580.94;5114109;28;20036;-68
2023/06/13 07:27:58;;;;;;;1.20;1.15;;;;;;;17.55;100.00;90572.28;5114098;28;20035;-69
2023/06/13 07:30:24;;;;;;;0.95;0.95;;;;;;;18.12;100.00;90573.19;5114076;28;20044;-66
2023/06/13 07:32:51;;;;;;;1.35;1.35;;;;;;;18.85;100.00;90569.19;5114022;28;20493;-68
2023/06/13 07:35:23;;;;;;;1.88;1.77;;;;;;;19.57;100.00;90574.22;5114117;28;20046;-67
2023/06/13 07:37:49;;;;;;;4.43;1.90;;;;;;;18.85;100.00;90563.78;5113857;28;20035;-66
2023/06/13 07:40:16;;;;;;;2.55;2.35;;;;;;;18.18;100.00;90577.13;5113832;28;20042;-68
2023/06/13 07:42:41;;;;;;;1.25;1.15;;;;;;;17.62;100.00;90583.16;5113877;28;20043;-67
2023/06/13 07:45:07;;;;;;;1.85;1.75;;;;;;;18.54;100.00;90583.78;5113766;28;20039;-68
2023/06/13 07:47:32;;;;;;;1.67;1.42;;;;;;;19.60;100.00;90578.88;5113663;28;20054;-67
2023/06/13 07:49:58;;;;;;;1.88;1.77;;;;;;;19.20;100.00;90576.88;5113686;28;20090;-67
2023/06/13 07:52:23;;;;;;;3.72;1.85;;;;;;;18.80;100.00;90572.22;5113618;28;20039;-67
2023/06/13 07:54:48;;;;;;;1.00;1.00;;;;;;;19.05;100.00;90578.66;5113485;28;20044;-67
2023/06/13 07:57:14;;;;;;;1.20;1.10;;;;;;;19.74;100.00;90581.69;5113463;28;20047;-67
2023/06/13 07:59:39;;;;;;;1.10;1.10;;;;;;;20.73;100.00;90582.78;5113440;28;20039;-67
2023/06/13 08:02:05;;;;;;;0.98;0.98;;;;;;;22.10;100.00;90584.34;5113515;28;20120;-68
2023/06/13 08:04:31;;;;;;;1.42;1.33;;;;;;;23.38;100.00;90580.59;5113414;28;20074;-68
2023/06/13 08:06:57;;;;;;;1.40;1.30;;;;;;;24.51;100.00;90574.81;5113718;28;20075;-68
2023/06/13 08:09:23;;;;;;;1.10;1.10;;;;;;;25.17;100.00;90574.56;5112156;28;20122;-68
2023/06/13 08:11:49;;;;;;;1.67;1.50;;;;;;;24.54;100.00;90572.06;5113127;28;20118;-68
2023/06/13 08:14:14;;;;;;;2.22;2.03;;;;;;;23.89;100.00;90571.00;5113264;28;20042;-68
2023/06/13 08:16:40;;;;;;;1.50;1.40;;;;;;;23.89;100.00;90571.78;5113281;28;20043;-67
2023/06/13 08:19:05;;;;;;;1.33;1.23;;;;;;;23.71;100.00;90573.06;5113407;28;20069;-69
2023/06/13 08:21:31;;;;;;;2.97;1.40;;;;;;;24.07;99.50;90576.31;5113140;28;20504;-67
2023/06/13 08:23:59;;;;;;;1.92;1.83;;;;;;;22.99;100.00;90576.09;5112975;28;20036;-68
2023/06/13 08:26:25;;;;;;;2.53;1.45;;;;;;;23.08;100.00;90567.53;5113047;28;20509;-67
2023/06/13 08:28:51;;;;;;;3.97;1.45;;;;;;;24.16;100.00;90576.66;5112989;28;20036;-67
2023/06/13 08:31:23;;;;;;;1.10;1.10;;;;;;;23.42;99.42;90569.72;5112876;28;20039;-69
2023/06/13 08:33:50;;;;;;;1.38;1.27;;;;;;;23.70;100.00;90569.59;5113103;28;20051;-68
2023/06/13 08:36:15;;;;;;;2.00;1.80;;;;;;;24.74;93.44;90558.66;5112913;28;20118;-68
2023/06/13 08:38:40;;;;;;;2.80;0.73;;;;;;;24.77;86.15;90564.09;5112777;28;20531;-68
2023/06/13 08:41:06;;;;;;;0.80;0.80;;;;;;;25.43;82.59;90570.38;5112732;28;20042;-68
2023/06/13 08:43:32;;;;;;;1.08;0.98;;;;;;;25.49;79.90;90560.56;5112905;28;20043;-68
2023/06/13 08:45:58;;;;;;;1.25;1.23;;;;;;;25.40;74.99;90563.75;5112627;28;20062;-68
2023/06/13 08:48:27;;;;;;;0.85;0.85;;;;;;;25.20;77.82;90562.84;5112531;28;20485;-70
2023/06/13 08:50:53;;;;;;;1.13;0.93;;;;;;;25.43;72.17;90560.25;5112610;28;20043;-68
2023/06/13 08:53:21;;;;;;;4.70;1.48;;;;;;;24.81;75.02;90552.38;5112333;28;20122;-69
2023/06/13 08:55:49;;;;;;;1.08;1.05;;;;;;;25.36;81.97;90563.03;5112451;28;20040;-68
2023/06/13 08:58:18;;;;;;;1.42;1.33;;;;;;;29.80;64.06;90569.66;5112517;28;20062;-66
2023/06/13 09:00:45;;;;;;;1.30;1.20;;;;;;;32.37;46.78;90572.13;5112710;28;20059;-69
2023/06/13 09:03:13;;;;;;;0.90;0.90;;;;;;;29.89;50.06;90558.06;5094194;28;20050;-70
2023/06/13 09:05:40;;;;;;;2.33;1.42;;;;;;;31.67;49.12;90570.75;5094010;28;20036;-71
2023/06/13 09:08:06;;;;;;;1.60;1.50;;;;;;;32.35;45.14;90572.59;5107870;28;20428;-73
2023/06/13 09:10:32;;;;;;;1.30;1.20;;;;;;;29.67;49.74;90562.63;5089707;28;20040;-72
2023/06/13 09:12:59;;;;;;;2.03;1.30;;;;;;;30.91;47.51;90566.28;5091513;28;20087;-70
2023/06/13 09:15:26;;;;;;;1.35;1.02;;;;;;;32.10;44.31;90567.22;5091865;28;20410;-69
2023/06/13 09:17:55;;;;;;;1.95;1.40;;;;;;;30.07;48.00;90558.31;5091780;28;20059;-73
2023/06/13 09:20:21;;;;;;;1.80;1.70;;;;;;;29.48;50.48;90572.53;5091139;28;20036;-69
2023/06/13 09:22:47;;;;;;;29.50;1.88;;;;;;;28.34;52.48;90565.22;5091259;28;20082;-69
2023/06/13 09:25:17;;;;;;;2.08;1.50;;;;;;;26.70;55.49;90569.69;5091721;28;20035;-70
2023/06/13 09:27:45;;;;;;;1.38;1.27;;;;;;;26.30;59.31;90574.22;5091359;28;20044;-69
2023/06/13 09:30:14;;;;;;;1.90;1.73;;;;;;;28.33;54.83;90568.41;5091436;28;20032;-70
2023/06/13 09:32:47;;;;;;;0.82;0.82;;;;;;;26.66;57.32;90560.78;5073026;28;20036;-72
2023/06/13 09:35:12;;;;;;;1.45;1.35;;;;;;;24.54;68.63;90555.75;5073112;28;20460;-70
2023/06/13 09:37:39;;;;;;;1.00;1.00;;;;;;;24.64;74.62;90554.88;5072469;28;20036;-70
2023/06/13 09:40:09;;;;;;;1.75;1.52;;;;;;;25.10;74.26;90548.19;5091035;28;20089;-73
2023/06/13 09:42:35;;;;;;;1.95;1.27;;;;;;;25.33;72.85;90559.19;5073165;28;20438;-70
2023/06/13 09:45:08;;;;;;;1.10;1.10;;;;;;;24.47;82.06;90553.09;5090942;28;20035;-70
2023/06/13 09:47:34;;;;;;;;;;;;;;;24.34;85.04;90560.22;5091398;28;20036;-70
2023/06/13 09:50:03;;;;;;;1.38;1.27;;;;;;;24.12;85.86;90549.47;5072690;28;19916;-70
2023/06/13 09:52:32;;;;;;;1.73;1.42;;;;;;;23.74;89.12;90553.25;5090479;28;20490;-69
2023/06/13 09:54:58;;;;;;;1.48;1.38;;;;;;;22.70;100.00;90553.66;5105000;28;20031;-69
2023/06/13 09:57:24;;;;;;;1.00;1.00;;;;;;;22.02;100.00;90547.56;5091369;28;20035;-69
2023/06/13 09:59:50;;;;;;;1.58;1.48;;;;;;;23.04;100.00;90555.94;5099760;28;20082;-69
2023/06/13 10:02:19;;;;;;;4.32;1.30;;;;;;;24.76;94.04;90548.91;5090548;28;20563;-69
2023/06/13 10:04:45;;;;;;;2.13;1.38;;;;;;;26.01;85.20;90541.94;5090730;28;20475;-70
2023/06/13 10:07:13;;;;;;;1.85;1.67;;;;;;;25.70;75.02;90543.94;5090462;28;20108;-69
2023/06/13 10:09:39;;;;;;;3.33;2.20;;;;;;;25.64;81.63;90531.94;5072390;28;20116;-69
2023/06/13 10:12:10;;;;;;;1.50;1.33;;;;;;;27.34;76.87;90527.56;5090500;28;20552;-69
2023/06/13 10:14:40;;;;;;;1.25;1.10;;;;;;;30.13;58.72;90535.81;5090574;28;20044;-71
2023/06/13 10:17:11;;;;;;;0.85;0.85;;;;;;;26.88;59.45;90536.63;5090880;28;20123;-70
2023/06/13 10:19:39;;;;;;;1.65;1.30;;;;;;;26.52;61.96;90529.09;5090440;28;20452;-70
2023/06/13 10:22:09;;;;;;;1.30;1.25;;;;;;;26.52;62.62;90540.00;5090413;28;20048;-71
2023/06/13 10:24:36;;;;;;;2.35;1.13;;;;;;;27.43;56.26;90530.47;5090916;28;20052;-69
2023/06/13 10:27:03;;;;;;;1.65;1.55;;;;;;;28.61;57.67;90523.16;5090877;28;20044;-69
2023/06/13 10:30:09;;;;;;;1.10;1.10;;;;;;;30.44;50.31;90531.28;5090338;28;20044;-70
2023/06/13 10:33:19;;;;;;;1.20;0.98;;;;;;;31.43;46.33;90532.72;5090925;28;20040;-70
2023/06/13 10:36:03;;;;;;;1.67;1.33;;;;;;;29.28;49.59;90531.56;5094057;28;20047;-71
2023/06/13 10:39:20;;;;;;;1.38;1.27;;;;;;;30.36;51.93;90532.75;5100280;28;20058;-71
2023/06/13 10:41:53;;;;;;;1.23;1.20;;;;;;;34.16;44.35;90527.59;5062696;28;20114;-71
2023/06/13 10:44:27;;;;;;;;;;;;;;;33.75;39.92;90551.09;5094800;28;20043;-71
2023/06/13 10:46:53;;;;;;;2.70;1.48;;;;;;;33.74;41.56;90542.06;5097018;28;20440;-70
2023/06/13 10:49:19;;;;;;;1.23;1.13;;;;;;;33.74;41.17;90533.78;5085863;28;20036;-70
2023/06/13 10:51:46;;;;;;;0.75;0.75;;;;;;;32.51;41.07;90532.25;5100039;28;20035;-71
2023/06/13 10:54:13;;;;;;;0.75;0.75;;;;;;;30.52;45.98;90538.09;5075963;28;20039;-70
2023/06/13 10:56:43;;;;;;;17.83;1.67;;;;;;;31.32;46.68;90526.06;5094183;28;20060;-70
2023/06/13 10:59:16;;;;;;;1.77;1.67;;;;;;;31.88;44.12;90521.28;5075895;28;20024;-70
2023/06/13 11:01:43;;;;;;;1.17;1.10;;;;;;;33.84;41.28;90517.97;5094097;28;20024;-72
2023/06/13 11:04:20;;;;;;;1.67;1.30;;;;;;;31.52;42.49;90523.75;5094151;28;20028;-72
2023/06/13 11:06:49;;;;;;;0.98;0.98;;;;;;;29.43;46.51;90513.53;5093832;28;20107;-70
2023/06/13 11:09:15;;;;;;;1.25;1.15;;;;;;;31.72;45.04;90510.47;5093914;28;20497;-71
2023/06/13 11:11:55;;;;;;;2.30;0.93;;;;;;;34.49;41.04;90508.31;5093804;28;20073;-71
2023/06/13 11:14:42;;;;;;;1.52;1.42;;;;;;;33.42;39.35;90504.09;5093965;28;20032;-71
2023/06/13 11:17:07;;;;;;;1.67;1.58;;;;;;;32.44;44.21;90505.75;5093579;28;20028;-70
2023/06/13 11:19:34;;;;;;;1.38;1.08;;;;;;;33.23;43.23;90504.06;5092523;28;20038;-71
2023/06/13 11:22:00;;;;;;;1.42;1.35;;;;;;;33.83;42.20;90505.41;5093771;28;20490;-71
2023/06/13 11:24:31;;;;;;;1.48;1.38;;;;;;;34.76;38.87;90516.44;5093733;28;20027;-71
2023/06/13 11:26:59;;;;;;;1.33;1.23;;;;;;;34.78;39.32;90508.44;5093841;28;20028;-71
2023/06/13 11:29:26;;;;;;;2.58;1.00;;;;;;;34.17;39.11;90501.50;5093640;28;20028;-71